Time;durP1;ratioP1;P1;durP2;ratioP2;P2;SDS_P1;SDS_P2;PMS_P1;PMS_P2;Temp;Humidity;BMP_temperature;BMP_pressure;BME280_temperature;BME280_humidity;BME280_pressure;Samples;Min_cycle;Max_cycle;Signal;HPM_P1;HPM_P2
2023/12/08 00:00:40;;;;;;;9.07;4.30;;;;;;;4.71;100.00;100618.25;5205024;28;20029;-73
2023/12/08 00:03:11;;;;;;;8.10;4.50;;;;;;;4.72;100.00;100616.44;5204120;28;20095;-73
2023/12/08 00:05:41;;;;;;;9.65;4.65;;;;;;;4.72;100.00;100612.00;5205033;28;20025;-73
2023/12/08 00:08:12;;;;;;;7.20;4.22;;;;;;;4.73;100.00;100603.03;5205416;28;20032;-73
2023/12/08 00:10:42;;;;;;;10.52;4.68;;;;;;;4.75;100.00;100600.22;5205695;28;20044;-73
2023/12/08 00:13:13;;;;;;;9.07;4.47;;;;;;;4.75;100.00;100605.56;5205357;28;20025;-73
2023/12/08 00:15:43;;;;;;;9.73;4.93;;;;;;;4.73;100.00;100592.41;5205519;28;20108;-73
2023/12/08 00:18:14;;;;;;;9.73;4.85;;;;;;;4.71;100.00;100597.00;5206178;28;20017;-73
2023/12/08 00:20:44;;;;;;;11.18;4.57;;;;;;;4.73;100.00;100588.91;5206967;28;20029;-73
2023/12/08 00:23:15;;;;;;;14.80;5.00;;;;;;;4.70;100.00;100582.03;5205738;28;20025;-73
2023/12/08 00:25:45;;;;;;;7.90;4.70;;;;;;;4.73;100.00;100581.78;5215100;28;20483;-73
2023/12/08 00:28:16;;;;;;;7.70;4.63;;;;;;;4.71;100.00;100585.53;5202150;28;20071;-73
2023/12/08 00:30:46;;;;;;;9.82;4.25;;;;;;;4.73;100.00;100580.94;5211602;28;20043;-73
2023/12/08 00:33:17;;;;;;;10.90;5.70;;;;;;;4.73;100.00;100570.31;5209204;28;20403;-73
2023/12/08 00:35:48;;;;;;;8.77;4.70;;;;;;;4.71;100.00;100573.06;5211583;28;20024;-73
2023/12/08 00:38:19;;;;;;;8.93;4.47;;;;;;;4.71;100.00;100564.25;5204412;28;20104;-73
2023/12/08 00:40:50;;;;;;;7.80;4.53;;;;;;;4.70;100.00;100559.94;5201617;28;20115;-73
2023/12/08 00:43:20;;;;;;;8.70;4.68;;;;;;;4.67;100.00;100547.78;5206642;28;20037;-73
2023/12/08 00:45:51;;;;;;;10.38;4.50;;;;;;;4.65;100.00;100547.06;5208351;28;20029;-73
2023/12/08 00:48:21;;;;;;;8.45;4.50;;;;;;;4.63;100.00;100543.69;5206386;28;20021;-73
2023/12/08 00:50:52;;;;;;;10.95;5.45;;;;;;;4.62;100.00;100540.22;5205394;28;20468;-73
2023/12/08 00:53:22;;;;;;;11.57;5.35;;;;;;;4.64;100.00;100534.75;5209227;28;20025;-73
2023/12/08 00:55:53;;;;;;;11.57;5.75;;;;;;;4.64;100.00;100534.75;5205203;28;20030;-73
2023/12/08 00:58:24;;;;;;;13.30;5.05;;;;;;;4.62;100.00;100532.25;5209335;28;20116;-73
2023/12/08 01:00:55;;;;;;;9.40;4.85;;;;;;;4.58;100.00;100524.66;5210065;28;20120;-74
2023/12/08 01:03:25;;;;;;;9.68;5.60;;;;;;;4.59;100.00;100527.19;5213240;28;20030;-73
2023/12/08 01:05:57;;;;;;;12.65;5.55;;;;;;;4.56;100.00;100529.25;5225669;28;21180;-74
2023/12/08 01:08:28;;;;;;;10.23;5.45;;;;;;;4.53;100.00;100517.09;5206355;28;20111;-74
2023/12/08 01:11:00;;;;;;;13.40;5.80;;;;;;;4.52;100.00;100507.47;5206887;28;20033;-74
2023/12/08 01:13:39;;;;;;;14.52;6.22;;;;;;;4.45;100.00;100508.13;5189946;28;20635;-74
2023/12/08 01:16:12;;;;;;;14.60;5.97;;;;;;;4.41;100.00;100507.53;5208857;28;20048;-74
2023/12/08 01:18:45;;;;;;;15.23;6.35;;;;;;;4.42;100.00;100503.94;5209948;28;20654;-74
2023/12/08 01:21:16;;;;;;;10.98;5.30;;;;;;;4.41;100.00;100500.41;5203753;28;20018;-76
2023/12/08 01:23:47;;;;;;;10.65;5.78;;;;;;;4.45;100.00;100494.84;5209530;28;20036;-74
2023/12/08 01:26:17;;;;;;;12.65;6.15;;;;;;;4.45;100.00;100508.13;5207157;28;20017;-74
2023/12/08 01:28:51;;;;;;;15.40;6.63;;;;;;;4.38;100.00;100519.28;5210875;28;20032;-74
2023/12/08 01:31:22;;;;;;;12.75;6.43;;;;;;;4.36;100.00;100509.75;5192291;28;20057;-74
2023/12/08 01:33:55;;;;;;;17.05;6.55;;;;;;;4.44;100.00;100506.44;5208734;28;20483;-75
2023/12/08 01:36:29;;;;;;;13.60;5.70;;;;;;;4.37;100.00;100516.78;5188767;28;20124;-74
2023/12/08 01:39:00;;;;;;;11.85;6.20;;;;;;;4.37;100.00;100522.09;5204720;28;20088;-75
2023/12/08 01:41:35;;;;;;;15.32;6.72;;;;;;;4.36;100.00;100512.41;5192193;28;20036;-74
2023/12/08 01:44:11;;;;;;;13.43;7.07;;;;;;;4.34;100.00;100514.38;5169703;28;20381;-74
2023/12/08 01:46:45;;;;;;;14.35;7.65;;;;;;;4.31;100.00;100502.19;5203953;28;20520;-72
2023/12/08 01:49:20;;;;;;;13.77;6.70;;;;;;;4.25;100.00;100508.03;5182350;28;20033;-73
2023/12/08 01:51:53;;;;;;;14.30;6.70;;;;;;;4.24;100.00;100506.38;5202102;28;20029;-73
2023/12/08 01:54:25;;;;;;;12.80;6.32;;;;;;;4.25;100.00;100501.91;5193468;28;20049;-74
2023/12/08 01:56:56;;;;;;;13.68;6.88;;;;;;;4.21;100.00;100498.66;5203993;28;20045;-72
2023/12/08 01:59:31;;;;;;;19.33;7.20;;;;;;;4.18;100.00;100508.72;5204606;28;20108;-73
2023/12/08 02:02:04;;;;;;;14.32;7.07;;;;;;;4.27;100.00;100511.44;5206659;28;20026;-73
2023/12/08 02:04:44;;;;;;;13.88;7.28;;;;;;;4.31;100.00;100507.50;5186247;28;20504;-73
2023/12/08 02:07:18;;;;;;;16.48;7.97;;;;;;;4.33;100.00;100516.19;5187374;28;20040;-73
2023/12/08 02:09:51;;;;;;;13.63;6.97;;;;;;;4.30;100.00;100524.41;5192257;28;20456;-73
2023/12/08 02:12:24;;;;;;;19.17;7.30;;;;;;;4.24;100.00;100529.44;5204592;28;20554;-73
2023/12/08 02:15:01;;;;;;;15.30;7.38;;;;;;;4.21;100.00;100521.72;5200644;28;20037;-73
2023/12/08 02:17:38;;;;;;;18.90;8.40;;;;;;;4.25;100.00;100512.53;5209755;28;20033;-73
2023/12/08 02:20:10;;;;;;;16.73;7.60;;;;;;;4.28;100.00;100529.03;5193893;28;20445;-72
2023/12/08 02:22:41;;;;;;;16.95;7.90;;;;;;;4.33;100.00;100529.47;5203963;28;20022;-73
2023/12/08 02:25:13;;;;;;;18.05;8.68;;;;;;;4.33;100.00;100524.16;5204331;28;20029;-73
2023/12/08 02:27:44;;;;;;;13.93;7.80;;;;;;;4.36;100.00;100520.38;5207251;28;20014;-72
2023/12/08 02:30:16;;;;;;;16.40;8.43;;;;;;;4.37;100.00;100527.41;5207918;28;20089;-73
2023/12/08 02:33:03;;;;;;;16.88;8.38;;;;;;;4.34;100.00;100519.69;5203117;28;20024;-73
2023/12/08 02:35:39;;;;;;;17.20;8.40;;;;;;;4.27;100.00;100510.59;5207865;28;20244;-72
2023/12/08 02:38:13;;;;;;;16.90;8.80;;;;;;;4.26;100.00;100508.88;5203241;28;20120;-72
2023/12/08 02:40:44;;;;;;;18.52;8.68;;;;;;;4.31;100.00;100515.47;5202686;28;20033;-72
2023/12/08 02:43:15;;;;;;;20.95;8.77;;;;;;;4.37;100.00;100522.09;5205216;28;20018;-72
2023/12/08 02:45:46;;;;;;;18.75;9.57;;;;;;;4.34;100.00;100517.88;5203005;28;20524;-73
2023/12/08 02:48:16;;;;;;;18.70;9.20;;;;;;;4.26;100.00;100519.50;5207667;28;20113;-72
2023/12/08 02:50:47;;;;;;;24.65;9.68;;;;;;;4.29;100.00;100530.72;5204920;28;20100;-72
2023/12/08 02:53:42;;;;;;;17.80;8.70;;;;;;;4.27;100.00;100526.53;5206212;28;20021;-72
2023/12/08 02:56:13;;;;;;;18.58;9.35;;;;;;;4.26;100.00;100517.69;5198356;28;20037;-73
2023/12/08 02:58:44;;;;;;;22.30;9.95;;;;;;;4.29;100.00;100517.44;5202591;28;20021;-72
2023/12/08 03:01:15;;;;;;;20.95;9.68;;;;;;;4.37;100.00;100514.97;5201194;28;20491;-72
2023/12/08 03:03:45;;;;;;;22.02;10.32;;;;;;;4.33;100.00;100504.75;5209878;28;20045;-72
2023/12/08 03:06:16;;;;;;;26.20;9.55;;;;;;;4.26;100.00;100495.59;5204763;28;20059;-72
2023/12/08 03:08:50;;;;;;;20.83;9.80;;;;;;;4.28;100.00;100521.06;5204231;28;20021;-72
2023/12/08 03:11:34;;;;;;;24.80;10.82;;;;;;;4.23;100.00;100510.00;5201233;28;20044;-72
2023/12/08 03:14:05;;;;;;;23.60;9.65;;;;;;;4.36;100.00;100510.59;5206682;28;20017;-72
2023/12/08 03:16:35;;;;;;;21.88;10.15;;;;;;;4.35;100.00;100510.75;5209392;28;20416;-72
2023/12/08 03:19:16;;;;;;;23.10;10.25;;;;;;;4.30;100.00;100494.38;5204154;28;20029;-72
2023/12/08 03:21:47;;;;;;;21.75;10.20;;;;;;;4.26;100.00;100496.44;5204684;28;20467;-72
2023/12/08 03:24:18;;;;;;;25.52;10.75;;;;;;;4.27;100.00;100500.81;5207993;28;20037;-72
2023/12/08 03:26:49;;;;;;;20.73;10.40;;;;;;;4.29;100.00;100492.69;5202976;28;20030;-72
2023/12/08 03:29:20;;;;;;;26.25;10.73;;;;;;;4.29;100.00;100498.00;5206096;28;20443;-72
2023/12/08 03:31:51;;;;;;;27.50;11.18;;;;;;;4.34;100.00;100507.25;5211052;28;20021;-72
2023/12/08 03:34:22;;;;;;;29.30;10.73;;;;;;;4.35;100.00;100500.13;5208072;28;20029;-72
2023/12/08 03:36:57;;;;;;;23.30;10.85;;;;;;;4.36;100.00;100494.66;5204596;28;20040;-73
2023/12/08 03:39:28;;;;;;;22.02;10.05;;;;;;;4.45;100.00;100484.22;5210631;28;20025;-73
2023/12/08 03:41:58;;;;;;;27.85;11.85;;;;;;;4.46;100.00;100486.72;5208044;28;20024;-73
2023/12/08 03:44:29;;;;;;;20.27;10.70;;;;;;;4.44;100.00;100491.34;5210853;28;20484;-73
2023/12/08 03:47:00;;;;;;;24.00;11.13;;;;;;;4.44;100.00;100493.16;5213496;28;20021;-73
2023/12/08 03:49:30;;;;;;;25.42;11.48;;;;;;;4.46;100.00;100493.84;5209848;28;20074;-73
2023/12/08 03:52:01;;;;;;;26.08;11.30;;;;;;;4.53;100.00;100485.22;5210281;28;20100;-73
2023/12/08 03:54:31;;;;;;;24.73;11.77;;;;;;;4.45;100.00;100486.88;5206583;28;20051;-73
2023/12/08 03:57:02;;;;;;;25.40;11.70;;;;;;;4.54;100.00;100486.91;5204440;28;20476;-73
2023/12/08 03:59:32;;;;;;;25.52;11.43;;;;;;;4.50;100.00;100489.97;5214069;28;20037;-74
2023/12/08 04:02:03;;;;;;;28.45;11.13;;;;;;;4.51;100.00;100486.31;5214828;28;20748;-73
2023/12/08 04:04:34;;;;;;;30.58;12.05;;;;;;;4.52;100.00;100493.31;5211024;28;20336;-73
2023/12/08 04:07:05;;;;;;;27.40;11.18;;;;;;;4.51;100.00;100481.00;5210048;28;20379;-74
2023/12/08 04:09:35;;;;;;;29.20;13.05;;;;;;;4.51;100.00;100483.66;5209680;28;20026;-73
2023/12/08 04:12:06;;;;;;;28.77;12.15;;;;;;;4.57;100.00;100483.16;5208139;28;20026;-73
2023/12/08 04:14:36;;;;;;;28.17;13.93;;;;;;;4.53;100.00;100476.41;5211655;28;20029;-73
2023/12/08 04:17:07;;;;;;;28.92;13.35;;;;;;;4.57;100.00;100486.63;5208732;28;20025;-74
2023/12/08 04:19:38;;;;;;;30.15;12.55;;;;;;;4.64;100.00;100481.59;5210499;28;20312;-73
2023/12/08 04:22:09;;;;;;;27.23;12.98;;;;;;;4.60;100.00;100488.16;5207598;28;20330;-73
2023/12/08 04:24:40;;;;;;;25.10;12.32;;;;;;;4.62;100.00;100484.41;5207337;28;20054;-73
2023/12/08 04:27:11;;;;;;;33.25;14.30;;;;;;;4.64;100.00;100497.56;5210605;28;20017;-73
2023/12/08 04:29:41;;;;;;;30.70;14.48;;;;;;;4.63;100.00;100486.09;5211556;28;20021;-73
2023/12/08 04:32:12;;;;;;;36.40;15.55;;;;;;;4.63;100.00;100479.94;5212167;28;20064;-73
2023/12/08 04:34:42;;;;;;;29.70;14.75;;;;;;;4.67;100.00;100492.81;5209093;28;20029;-73
2023/12/08 04:37:13;;;;;;;27.35;12.45;;;;;;;4.63;100.00;100495.88;5205526;28;20022;-73
2023/12/08 04:39:44;;;;;;;37.20;14.77;;;;;;;4.61;100.00;100492.50;5207913;28;20052;-73
2023/12/08 04:42:15;;;;;;;30.08;13.10;;;;;;;4.64;100.00;100485.09;5206998;28;20481;-73
2023/12/08 04:44:45;;;;;;;33.80;13.85;;;;;;;4.63;100.00;100493.22;5205982;28;20508;-73
2023/12/08 04:47:16;;;;;;;34.08;14.02;;;;;;;4.67;100.00;100487.50;5207862;28;20156;-73
2023/12/08 04:49:47;;;;;;;35.72;15.48;;;;;;;4.66;100.00;100493.75;5207985;28;20025;-73
2023/12/08 04:52:17;;;;;;;36.35;14.23;;;;;;;4.64;100.00;100490.41;5205790;28;20022;-74
2023/12/08 04:54:48;;;;;;;36.67;15.27;;;;;;;4.67;100.00;100489.31;5204830;28;20083;-73
2023/12/08 04:57:19;;;;;;;33.63;14.75;;;;;;;4.71;100.00;100481.88;5204428;28;20022;-73
2023/12/08 04:59:49;;;;;;;33.38;14.10;;;;;;;4.77;100.00;100486.66;5205868;28;20041;-73
2023/12/08 05:02:20;;;;;;;37.03;15.40;;;;;;;4.66;100.00;100479.63;5212701;28;20117;-73
2023/12/08 05:04:51;;;;;;;39.78;15.30;;;;;;;4.73;100.00;100469.31;5208613;28;20104;-73
2023/12/08 05:07:21;;;;;;;45.72;17.65;;;;;;;4.71;100.00;100469.44;5206401;28;20037;-73
2023/12/08 05:09:52;;;;;;;35.25;14.88;;;;;;;4.79;100.00;100490.88;5208939;28;20468;-73
2023/12/08 05:12:22;;;;;;;38.42;15.55;;;;;;;4.83;100.00;100497.59;5210160;28;20036;-74
2023/12/08 05:14:53;;;;;;;38.47;15.15;;;;;;;4.87;100.00;100496.34;5224020;28;20025;-73
2023/12/08 05:17:23;;;;;;;41.72;15.40;;;;;;;4.94;100.00;100491.31;5209068;28;20064;-73
2023/12/08 05:19:54;;;;;;;36.85;16.27;;;;;;;4.85;100.00;100492.13;5206658;28;20386;-73
2023/12/08 05:22:24;;;;;;;33.55;14.52;;;;;;;4.83;100.00;100488.78;5207215;28;20026;-73
2023/12/08 05:24:55;;;;;;;41.90;15.45;;;;;;;4.87;100.00;100485.72;5211505;28;20079;-72
2023/12/08 05:27:25;;;;;;;39.60;17.27;;;;;;;4.85;100.00;100492.97;5210979;28;20124;-73
2023/12/08 05:29:56;;;;;;;41.13;16.25;;;;;;;4.95;100.00;100485.00;5204126;28;20117;-73
2023/12/08 05:32:28;;;;;;;40.45;16.40;;;;;;;4.89;100.00;100486.41;5210372;28;20040;-73
2023/12/08 05:34:58;;;;;;;41.63;15.65;;;;;;;4.93;100.00;100481.66;5205963;28;20033;-73
2023/12/08 05:37:29;;;;;;;35.80;15.18;;;;;;;4.97;100.00;100476.88;5211938;28;20087;-73
2023/12/08 05:39:59;;;;;;;41.05;15.32;;;;;;;4.99;100.00;100481.09;5165425;28;1106784;-73
2023/12/08 05:42:30;;;;;;;39.20;14.60;;;;;;;5.08;100.00;100482.09;5210095;28;20036;-73
2023/12/08 05:45:00;;;;;;;46.30;16.08;;;;;;;5.08;100.00;100490.91;5207352;28;20527;-73
2023/12/08 05:47:31;;;;;;;40.45;16.48;;;;;;;5.03;100.00;100482.50;5205009;28;20047;-73
2023/12/08 05:50:02;;;;;;;44.15;16.90;;;;;;;5.11;100.00;100495.91;5207243;28;20022;-73
2023/12/08 05:52:32;;;;;;;42.92;16.63;;;;;;;5.17;100.00;100494.50;5209628;28;20041;-73
2023/12/08 05:55:03;;;;;;;57.83;18.35;;;;;;;5.12;100.00;100486.13;5206360;28;20100;-73
2023/12/08 05:57:34;;;;;;;47.00;16.58;;;;;;;5.14;100.00;100484.19;5206708;28;20033;-73
2023/12/08 06:00:06;;;;;;;42.97;16.17;;;;;;;5.17;100.00;100494.50;5207080;28;20025;-73
2023/12/08 06:02:37;;;;;;;43.70;16.95;;;;;;;5.28;100.00;100497.06;5211135;28;20035;-73
2023/12/08 06:05:08;;;;;;;45.38;15.68;;;;;;;5.30;100.00;100508.38;5207043;28;20041;-73
2023/12/08 06:07:39;;;;;;;48.85;16.90;;;;;;;5.37;100.00;100514.84;5209170;28;20430;-73
2023/12/08 06:10:11;;;;;;;43.08;16.10;;;;;;;5.35;100.00;100516.78;5204364;28;20380;-73
2023/12/08 06:12:42;;;;;;;38.67;16.38;;;;;;;5.40;100.00;100511.88;5210365;28;20115;-73
2023/12/08 06:15:13;;;;;;;54.42;17.58;;;;;;;5.46;100.00;100521.13;5212579;28;20152;-73
2023/12/08 06:17:43;;;;;;;42.90;16.33;;;;;;;5.51;100.00;100521.53;5205904;28;20029;-73
2023/12/08 06:20:14;;;;;;;49.45;17.73;;;;;;;5.52;100.00;100523.19;5208089;28;20105;-73
2023/12/08 06:22:44;;;;;;;42.03;16.35;;;;;;;5.58;100.00;100524.47;5202914;28;20057;-73
2023/12/08 06:25:15;;;;;;;48.38;16.63;;;;;;;5.64;100.00;100507.94;5205404;28;20388;-73
2023/12/08 06:27:46;;;;;;;53.08;15.85;;;;;;;5.59;100.00;100523.50;5202606;28;20037;-73
2023/12/08 06:30:16;;;;;;;53.25;16.95;;;;;;;5.67;100.00;100528.94;5209229;28;20021;-73
2023/12/08 06:32:47;;;;;;;63.00;18.23;;;;;;;5.71;100.00;100525.84;5206736;28;20090;-73
2023/12/08 06:35:18;;;;;;;54.95;18.38;;;;;;;5.77;100.00;100526.25;5205797;28;20029;-73
2023/12/08 06:37:50;;;;;;;62.50;17.52;;;;;;;5.82;100.00;100526.66;5208332;28;20543;-73
2023/12/08 06:40:20;;;;;;;54.60;16.70;;;;;;;5.83;100.00;100539.84;5204736;28;20033;-73
2023/12/08 06:42:51;;;;;;;49.38;17.15;;;;;;;5.82;100.00;100540.81;5198041;28;20387;-73
2023/12/08 06:45:23;;;;;;;46.72;16.00;;;;;;;5.84;100.00;100543.34;5208195;28;20029;-73
2023/12/08 06:47:53;;;;;;;60.20;17.80;;;;;;;5.85;100.00;100545.03;5191503;28;20395;-73
2023/12/08 06:50:24;;;;;;;55.67;17.90;;;;;;;5.90;100.00;100543.59;5206775;28;20037;-73
2023/12/08 06:52:55;;;;;;;65.32;17.58;;;;;;;5.88;100.00;100552.75;5205873;28;20029;-73
2023/12/08 06:55:26;;;;;;;55.22;16.83;;;;;;;5.92;100.00;100548.81;5206796;28;20116;-73
2023/12/08 06:57:56;;;;;;;61.78;18.30;;;;;;;5.95;100.00;100553.88;5206226;28;20063;-73
2023/12/08 07:00:27;;;;;;;67.65;17.45;;;;;;;6.01;100.00;100555.09;5208886;28;20125;-73
2023/12/08 07:02:57;;;;;;;63.05;17.67;;;;;;;6.03;100.00;100556.66;5210563;28;20025;-73
2023/12/08 07:05:28;;;;;;;55.67;17.73;;;;;;;6.08;100.00;100565.06;5210156;28;20483;-73
2023/12/08 07:07:58;;;;;;;59.80;17.85;;;;;;;6.14;100.00;100567.13;5206971;28;20036;-73
2023/12/08 07:10:29;;;;;;;70.00;19.40;;;;;;;6.14;100.00;100563.63;5205946;28;20024;-73
2023/12/08 07:13:00;;;;;;;65.25;18.42;;;;;;;6.17;100.00;100576.66;5205246;28;20049;-73
2023/12/08 07:15:30;;;;;;;67.22;18.92;;;;;;;6.25;100.00;100581.25;5209224;28;20028;-73
2023/12/08 07:18:01;;;;;;;69.10;20.27;;;;;;;6.23;100.00;100587.59;5204533;28;20029;-73
2023/12/08 07:20:31;;;;;;;72.97;18.92;;;;;;;6.29;100.00;100588.00;5208832;28;20025;-73
2023/12/08 07:23:02;;;;;;;81.07;20.83;;;;;;;6.32;100.00;100585.00;5205232;28;20030;-73
2023/12/08 07:25:32;;;;;;;79.45;20.45;;;;;;;6.33;100.00;100590.22;5208696;28;20033;-73
2023/12/08 07:28:03;;;;;;;78.15;20.60;;;;;;;6.36;100.00;100589.06;5209523;28;20021;-73
2023/12/08 07:30:34;;;;;;;73.20;21.00;;;;;;;6.36;100.00;100595.25;5207494;28;20040;-73
2023/12/08 07:33:05;;;;;;;57.30;18.30;;;;;;;6.42;100.00;100592.00;5205619;28;20026;-73
2023/12/08 07:35:35;;;;;;;60.60;19.92;;;;;;;6.42;100.00;100601.81;5202517;28;20053;-73
2023/12/08 07:38:06;;;;;;;76.20;20.48;;;;;;;6.48;100.00;100596.75;5206449;28;20116;-74
2023/12/08 07:40:37;;;;;;;79.47;22.15;;;;;;;6.52;100.00;100602.63;5209111;28;20040;-73
2023/12/08 07:43:07;;;;;;;80.93;20.00;;;;;;;6.54;100.00;100591.84;5199964;28;20390;-73
2023/12/08 07:45:38;;;;;;;63.58;20.55;;;;;;;6.59;100.00;100597.56;5210179;28;20563;-73
2023/12/08 07:48:08;;;;;;;69.32;20.02;;;;;;;6.59;100.00;100602.91;5190335;28;20040;-73
2023/12/08 07:50:39;;;;;;;83.45;22.17;;;;;;;6.59;100.00;100603.72;5205086;28;20449;-73
2023/12/08 07:53:10;;;;;;;77.57;20.45;;;;;;;6.68;100.00;100602.03;5208281;28;20330;-73
2023/12/08 07:55:41;;;;;;;82.70;22.05;;;;;;;6.69;100.00;100612.53;5209641;28;20108;-73
2023/12/08 07:58:12;;;;;;;92.28;23.55;;;;;;;6.76;100.00;100612.78;5209575;28;20029;-73
2023/12/08 08:00:42;;;;;;;92.65;23.55;;;;;;;6.73;100.00;100613.09;5210225;28;20028;-73
2023/12/08 08:03:13;;;;;;;93.20;22.40;;;;;;;6.88;100.00;100626.78;5211994;28;20029;-73
2023/12/08 08:05:43;;;;;;;104.45;23.63;;;;;;;6.92;100.00;100633.47;5207827;28;20499;-73
2023/12/08 08:08:14;;;;;;;87.07;23.88;;;;;;;6.98;100.00;100641.72;5208557;28;20029;-73
2023/12/08 08:10:44;;;;;;;88.85;22.88;;;;;;;6.98;100.00;100639.06;5208065;28;20082;-73
2023/12/08 08:13:15;;;;;;;90.43;22.67;;;;;;;7.04;100.00;100636.78;5208873;28;20025;-73
2023/12/08 08:15:46;;;;;;;94.07;22.75;;;;;;;7.10;100.00;100642.38;5212522;28;20048;-73
2023/12/08 08:18:16;;;;;;;85.38;22.27;;;;;;;7.14;100.00;100646.41;5202518;28;20017;-73
2023/12/08 08:20:47;;;;;;;97.35;23.23;;;;;;;7.18;100.00;100650.47;5205342;28;20500;-73
2023/12/08 08:23:17;;;;;;;85.90;24.77;;;;;;;7.18;100.00;100650.47;5203029;28;20021;-73
2023/12/08 08:25:48;;;;;;;92.60;23.55;;;;;;;7.23;100.00;100653.53;5208318;28;20036;-73
2023/12/08 08:28:19;;;;;;;108.57;25.70;;;;;;;7.28;100.00;100661.09;5212483;28;20275;-73
2023/12/08 08:30:49;;;;;;;101.10;24.40;;;;;;;7.31;100.00;100666.13;5206428;28;20028;-73
2023/12/08 08:33:20;;;;;;;98.25;24.10;;;;;;;7.32;100.00;100651.78;5212715;28;20057;-73
2023/12/08 08:35:51;;;;;;;89.40;23.52;;;;;;;7.33;100.00;100663.28;5205969;28;20031;-73
2023/12/08 08:38:21;;;;;;;87.60;21.70;;;;;;;7.39;100.00;100666.22;5209953;28;20363;-73
2023/12/08 08:40:52;;;;;;;98.72;25.60;;;;;;;7.37;100.00;100675.34;5210775;28;20033;-73
2023/12/08 08:43:22;;;;;;;97.57;24.88;;;;;;;7.41;100.00;100676.72;5210585;28;20029;-73
2023/12/08 08:45:53;;;;;;;95.07;24.65;;;;;;;7.45;100.00;100675.44;5207577;28;20099;-73
2023/12/08 08:48:24;;;;;;;103.78;24.48;;;;;;;7.50;100.00;100687.34;5212634;28;20071;-73
2023/12/08 08:50:54;;;;;;;98.60;23.25;;;;;;;7.46;100.00;100693.13;5207411;28;20028;-73
2023/12/08 08:53:26;;;;;;;105.05;23.70;;;;;;;7.51;100.00;100699.69;5208121;28;20104;-73
2023/12/08 08:55:57;;;;;;;107.43;25.98;;;;;;;7.54;100.00;100698.56;5207080;28;20033;-73
2023/12/08 08:58:28;;;;;;;102.53;22.88;;;;;;;7.52;100.00;100700.53;5210105;28;20040;-73
2023/12/08 09:00:58;;;;;;;96.80;23.17;;;;;;;7.57;100.00;100695.59;5209312;28;20072;-73
2023/12/08 09:03:29;;;;;;;108.20;24.15;;;;;;;7.62;100.00;100697.81;5216356;28;20042;-73
2023/12/08 09:05:59;;;;;;;97.63;23.75;;;;;;;7.59;100.00;100693.63;5208702;28;20013;-73
2023/12/08 09:08:30;;;;;;;105.82;24.13;;;;;;;7.65;100.00;100703.69;5211932;28;20036;-73
2023/12/08 09:11:00;;;;;;;84.97;23.27;;;;;;;7.73;100.00;100709.13;5210044;28;20487;-73
2023/12/08 09:13:31;;;;;;;89.47;23.98;;;;;;;7.73;100.00;100711.81;5208991;28;20030;-73
2023/12/08 09:16:02;;;;;;;108.35;26.02;;;;;;;7.73;100.00;100711.81;5206019;28;20029;-72
2023/12/08 09:18:32;;;;;;;96.90;25.00;;;;;;;7.74;100.00;100721.50;5210745;28;20041;-72
2023/12/08 09:21:05;;;;;;;97.40;24.10;;;;;;;7.77;100.00;100720.34;5212645;28;20062;-72
2023/12/08 09:23:35;;;;;;;94.65;24.58;;;;;;;7.83;100.00;100718.88;5209259;28;20036;-72
2023/12/08 09:26:06;;;;;;;92.03;23.02;;;;;;;7.87;100.00;100728.28;5210576;28;20021;-72
2023/12/08 09:28:36;;;;;;;94.38;23.45;;;;;;;7.86;100.00;100730.13;5217591;28;20111;-71
2023/12/08 09:31:07;;;;;;;90.28;24.52;;;;;;;7.94;100.00;100721.34;5205699;28;20013;-71
2023/12/08 09:33:39;;;;;;;93.22;23.88;;;;;;;7.96;100.00;100714.03;5211178;28;20063;-72
2023/12/08 09:36:09;;;;;;;95.90;22.13;;;;;;;7.96;100.00;100716.69;5209880;28;20035;-72
2023/12/08 09:38:40;;;;;;;79.30;21.17;;;;;;;8.02;100.00;100724.09;5205962;28;20021;-72
2023/12/08 09:41:11;;;;;;;72.47;21.55;;;;;;;8.08;100.00;100728.81;5214221;28;20036;-72
2023/12/08 09:43:59;;;;;;;95.75;23.50;;;;;;;8.07;100.00;100732.47;5200920;28;20036;-72
2023/12/08 09:46:32;;;;;;;83.03;23.30;;;;;;;8.09;100.00;100732.34;5213819;28;20542;-72
2023/12/08 09:49:06;;;;;;;99.40;24.23;;;;;;;8.21;100.00;100733.78;5207372;28;20132;-72
2023/12/08 09:51:37;;;;;;;78.43;21.42;;;;;;;8.28;100.00;100742.84;5210455;28;20025;-71
2023/12/08 09:54:10;;;;;;;90.10;23.45;;;;;;;8.32;100.00;100745.06;5211432;28;20032;-71
2023/12/08 09:56:41;;;;;;;72.57;20.75;;;;;;;8.35;100.00;100743.94;5206801;28;20028;-71
2023/12/08 09:59:13;;;;;;;81.40;19.35;;;;;;;8.42;100.00;100739.66;5206269;28;20034;-74
2023/12/08 10:01:44;;;;;;;74.55;24.30;;;;;;;8.42;100.00;100752.19;5215578;28;20478;-74
2023/12/08 10:04:15;;;;;;;77.45;20.27;;;;;;;8.47;100.00;100750.75;5209623;28;20017;-74
2023/12/08 10:06:46;;;;;;;76.18;20.80;;;;;;;8.51;100.00;100746.75;5205198;28;20504;-74
2023/12/08 10:09:17;;;;;;;67.80;21.25;;;;;;;8.57;100.00;100738.13;5204251;28;20017;-73
2023/12/08 10:11:50;;;;;;;75.72;18.90;;;;;;;8.50;100.00;100728.22;5214556;28;20033;-74
2023/12/08 10:14:21;;;;;;;60.05;17.40;;;;;;;8.41;100.00;100726.47;5210549;28;20056;-72
2023/12/08 10:16:52;;;;;;;74.93;19.52;;;;;;;8.48;100.00;100741.75;5211382;28;20108;-71
2023/12/08 10:19:23;;;;;;;68.10;19.35;;;;;;;8.56;100.00;100744.47;5212607;28;20373;-72
2023/12/08 10:21:59;;;;;;;53.70;16.63;;;;;;;8.62;100.00;100743.00;5208758;28;20059;-72
2023/12/08 10:24:31;;;;;;;73.20;19.45;;;;;;;8.67;100.00;100742.53;5213277;28;20478;-71
2023/12/08 10:27:01;;;;;;;59.03;18.70;;;;;;;8.78;100.00;100751.13;5201955;28;20026;-71
2023/12/08 10:29:33;;;;;;;67.70;18.52;;;;;;;8.79;100.00;100741.28;5207863;28;20029;-73
2023/12/08 10:32:04;;;;;;;58.33;17.05;;;;;;;8.76;100.00;100745.09;5203869;28;20024;-71
2023/12/08 10:34:39;;;;;;;58.92;17.42;;;;;;;8.87;100.00;100746.69;5203803;28;20036;-74
2023/12/08 10:37:09;;;;;;;52.88;16.65;;;;;;;8.80;100.00;100748.31;5211725;28;20017;-72
2023/12/08 10:39:40;;;;;;;61.08;21.55;;;;;;;8.86;100.00;100746.84;5202968;28;20285;-70
2023/12/08 10:42:11;;;;;;;60.97;23.65;;;;;;;8.87;100.00;100751.19;5218052;28;20398;-72
2023/12/08 10:44:45;;;;;;;53.80;14.00;;;;;;;8.97;100.00;100749.25;5203762;28;20060;-72
2023/12/08 10:47:17;;;;;;;51.30;14.15;;;;;;;9.05;100.00;100746.63;5207999;28;20421;-72
2023/12/08 10:49:49;;;;;;;45.88;13.48;;;;;;;9.05;100.00;100749.31;5209548;28;20025;-72
2023/12/08 10:52:22;;;;;;;53.47;17.17;;;;;;;9.02;100.00;100753.13;5208258;28;20566;-71
2023/12/08 10:54:52;;;;;;;42.55;14.02;;;;;;;9.06;100.00;100759.84;5209805;28;20033;-71
2023/12/08 10:57:23;;;;;;;39.08;12.68;;;;;;;9.03;100.00;100770.00;5212087;28;20083;-71
2023/12/08 10:59:58;;;;;;;48.17;15.60;;;;;;;9.04;100.00;100761.00;5207147;28;20025;-71
2023/12/08 11:02:32;;;;;;;53.40;14.25;;;;;;;9.04;100.00;100766.38;5207242;28;20021;-71
2023/12/08 11:05:06;;;;;;;41.08;12.85;;;;;;;9.02;100.00;100763.81;5210482;28;21638;-72
2023/12/08 11:07:38;;;;;;;44.08;13.98;;;;;;;9.07;100.00;100760.69;5210805;28;20029;-72
2023/12/08 11:10:12;;;;;;;48.60;13.40;;;;;;;9.02;100.00;100753.13;5206782;28;20025;-71
2023/12/08 11:12:48;;;;;;;55.50;22.17;;;;;;;9.07;100.00;100749.97;5208555;28;20470;-73
2023/12/08 11:15:21;;;;;;;51.63;20.13;;;;;;;9.03;100.00;100751.28;5207965;28;20025;-73
2023/12/08 11:17:59;;;;;;;45.80;13.60;;;;;;;8.97;100.00;100749.25;5202354;28;20029;-71
2023/12/08 11:20:29;;;;;;;47.20;13.63;;;;;;;8.90;100.00;100754.41;5206610;28;20037;-73
2023/12/08 11:23:00;;;;;;;41.65;15.02;;;;;;;8.97;100.00;100752.75;5206890;28;20048;-72
2023/12/08 11:25:40;;;;;;;37.95;12.88;;;;;;;9.02;100.00;100746.94;5209155;28;20040;-71
2023/12/08 11:28:22;;;;;;;47.58;13.40;;;;;;;9.06;100.00;100753.66;5208020;28;20029;-72
2023/12/08 11:31:01;;;;;;;44.08;13.32;;;;;;;9.11;100.00;100750.50;5208864;28;20022;-73